sensor_id;sensor_type;location;lat;lon;timestamp;P1;durP1;ratioP1;P2;durP2;ratioP2
20140;SDS011;10231;47.702;9.826;2024-01-11T00:01:19;36.20;;;20.77;;
20140;SDS011;10231;47.702;9.826;2024-01-11T00:03:44;32.73;;;20.80;;
20140;SDS011;10231;47.702;9.826;2024-01-11T00:06:10;37.53;;;23.03;;
20140;SDS011;10231;47.702;9.826;2024-01-11T00:08:35;34.53;;;20.30;;
20140;SDS011;10231;47.702;9.826;2024-01-11T00:11:01;38.77;;;21.50;;
20140;SDS011;10231;47.702;9.826;2024-01-11T00:13:27;33.77;;;20.23;;
20140;SDS011;10231;47.702;9.826;2024-01-11T00:15:52;36.00;;;21.10;;
20140;SDS011;10231;47.702;9.826;2024-01-11T00:18:18;35.17;;;21.87;;
20140;SDS011;10231;47.702;9.826;2024-01-11T00:20:44;32.97;;;20.30;;
20140;SDS011;10231;47.702;9.826;2024-01-11T00:23:09;32.63;;;19.77;;
20140;SDS011;10231;47.702;9.826;2024-01-11T00:25:35;32.53;;;20.43;;
20140;SDS011;10231;47.702;9.826;2024-01-11T00:28:01;33.70;;;19.53;;
20140;SDS011;10231;47.702;9.826;2024-01-11T00:30:26;34.10;;;21.50;;
20140;SDS011;10231;47.702;9.826;2024-01-11T00:32:52;26.07;;;17.70;;
20140;SDS011;10231;47.702;9.826;2024-01-11T00:35:18;25.30;;;16.23;;
20140;SDS011;10231;47.702;9.826;2024-01-11T00:37:43;23.43;;;15.47;;
20140;SDS011;10231;47.702;9.826;2024-01-11T00:40:09;25.07;;;16.10;;
20140;SDS011;10231;47.702;9.826;2024-01-11T00:42:35;23.30;;;15.60;;
20140;SDS011;10231;47.702;9.826;2024-01-11T00:45:00;23.10;;;15.77;;
20140;SDS011;10231;47.702;9.826;2024-01-11T00:47:26;23.10;;;15.83;;
20140;SDS011;10231;47.702;9.826;2024-01-11T00:49:52;28.60;;;16.90;;
20140;SDS011;10231;47.702;9.826;2024-01-11T00:52:17;27.23;;;17.53;;
20140;SDS011;10231;47.702;9.826;2024-01-11T00:54:43;25.70;;;17.13;;
20140;SDS011;10231;47.702;9.826;2024-01-11T00:57:08;28.33;;;18.03;;
20140;SDS011;10231;47.702;9.826;2024-01-11T00:59:34;26.23;;;17.63;;
20140;SDS011;10231;47.702;9.826;2024-01-11T01:01:59;27.30;;;17.70;;
20140;SDS011;10231;47.702;9.826;2024-01-11T01:04:25;26.83;;;17.67;;
20140;SDS011;10231;47.702;9.826;2024-01-11T01:06:50;28.43;;;18.37;;
20140;SDS011;10231;47.702;9.826;2024-01-11T01:09:16;27.10;;;18.30;;
20140;SDS011;10231;47.702;9.826;2024-01-11T01:11:42;29.83;;;17.63;;
20140;SDS011;10231;47.702;9.826;2024-01-11T01:14:07;28.90;;;18.73;;
20140;SDS011;10231;47.702;9.826;2024-01-11T01:16:33;27.30;;;17.80;;
20140;SDS011;10231;47.702;9.826;2024-01-11T01:18:58;27.37;;;18.00;;
20140;SDS011;10231;47.702;9.826;2024-01-11T01:21:24;27.93;;;17.53;;
20140;SDS011;10231;47.702;9.826;2024-01-11T01:23:49;26.70;;;17.53;;
20140;SDS011;10231;47.702;9.826;2024-01-11T01:26:15;24.80;;;16.77;;
20140;SDS011;10231;47.702;9.826;2024-01-11T01:28:40;24.93;;;16.80;;
20140;SDS011;10231;47.702;9.826;2024-01-11T01:31:06;29.37;;;19.03;;
20140;SDS011;10231;47.702;9.826;2024-01-11T01:33:32;27.90;;;19.77;;
20140;SDS011;10231;47.702;9.826;2024-01-11T01:35:57;28.40;;;17.90;;
20140;SDS011;10231;47.702;9.826;2024-01-11T01:38:23;27.07;;;17.63;;
20140;SDS011;10231;47.702;9.826;2024-01-11T01:40:48;26.20;;;17.27;;
20140;SDS011;10231;47.702;9.826;2024-01-11T01:43:14;27.13;;;19.03;;
20140;SDS011;10231;47.702;9.826;2024-01-11T01:45:39;26.90;;;18.30;;
20140;SDS011;10231;47.702;9.826;2024-01-11T01:48:05;27.43;;;18.10;;
20140;SDS011;10231;47.702;9.826;2024-01-11T01:50:32;30.17;;;18.13;;
20140;SDS011;10231;47.702;9.826;2024-01-11T01:52:57;28.13;;;18.10;;
20140;SDS011;10231;47.702;9.826;2024-01-11T01:55:24;27.90;;;18.07;;
20140;SDS011;10231;47.702;9.826;2024-01-11T01:57:51;29.17;;;18.37;;
20140;SDS011;10231;47.702;9.826;2024-01-11T02:00:17;27.77;;;18.33;;
20140;SDS011;10231;47.702;9.826;2024-01-11T02:06:05;31.50;;;19.63;;
20140;SDS011;10231;47.702;9.826;2024-01-11T02:08:31;27.73;;;17.97;;
20140;SDS011;10231;47.702;9.826;2024-01-11T02:10:57;30.47;;;19.60;;
20140;SDS011;10231;47.702;9.826;2024-01-11T02:13:24;33.17;;;19.33;;
20140;SDS011;10231;47.702;9.826;2024-01-11T02:15:50;30.70;;;19.40;;
20140;SDS011;10231;47.702;9.826;2024-01-11T02:18:16;26.93;;;17.67;;
20140;SDS011;10231;47.702;9.826;2024-01-11T02:20:42;26.07;;;16.60;;
20140;SDS011;10231;47.702;9.826;2024-01-11T02:23:08;26.97;;;17.33;;
20140;SDS011;10231;47.702;9.826;2024-01-11T02:25:39;24.87;;;16.07;;
20140;SDS011;10231;47.702;9.826;2024-01-11T02:28:05;24.20;;;15.80;;
20140;SDS011;10231;47.702;9.826;2024-01-11T02:30:31;30.03;;;16.23;;
20140;SDS011;10231;47.702;9.826;2024-01-11T02:32:56;28.60;;;17.27;;
20140;SDS011;10231;47.702;9.826;2024-01-11T02:35:22;26.53;;;16.63;;
20140;SDS011;10231;47.702;9.826;2024-01-11T02:37:49;25.23;;;17.40;;
20140;SDS011;10231;47.702;9.826;2024-01-11T02:40:15;27.97;;;17.87;;
20140;SDS011;10231;47.702;9.826;2024-01-11T02:42:41;28.30;;;16.90;;
20140;SDS011;10231;47.702;9.826;2024-01-11T02:45:06;27.23;;;16.83;;
20140;SDS011;10231;47.702;9.826;2024-01-11T02:47:32;26.07;;;17.87;;
20140;SDS011;10231;47.702;9.826;2024-01-11T02:49:58;25.17;;;16.53;;
20140;SDS011;10231;47.702;9.826;2024-01-11T02:52:23;27.10;;;17.57;;
20140;SDS011;10231;47.702;9.826;2024-01-11T02:54:49;29.60;;;16.70;;
20140;SDS011;10231;47.702;9.826;2024-01-11T02:57:14;24.53;;;16.20;;
20140;SDS011;10231;47.702;9.826;2024-01-11T02:59:40;26.77;;;16.17;;
20140;SDS011;10231;47.702;9.826;2024-01-11T03:02:07;22.83;;;15.83;;
20140;SDS011;10231;47.702;9.826;2024-01-11T03:04:32;25.13;;;16.37;;
20140;SDS011;10231;47.702;9.826;2024-01-11T03:06:58;25.60;;;17.17;;
20140;SDS011;10231;47.702;9.826;2024-01-11T03:09:23;25.97;;;16.50;;
20140;SDS011;10231;47.702;9.826;2024-01-11T03:11:49;24.33;;;17.17;;
20140;SDS011;10231;47.702;9.826;2024-01-11T03:14:14;23.03;;;15.30;;
20140;SDS011;10231;47.702;9.826;2024-01-11T03:16:39;24.73;;;15.50;;
20140;SDS011;10231;47.702;9.826;2024-01-11T03:19:06;24.60;;;16.20;;
20140;SDS011;10231;47.702;9.826;2024-01-11T03:21:32;25.63;;;17.27;;
20140;SDS011;10231;47.702;9.826;2024-01-11T03:23:57;27.13;;;17.90;;
20140;SDS011;10231;47.702;9.826;2024-01-11T03:26:24;29.47;;;17.97;;
20140;SDS011;10231;47.702;9.826;2024-01-11T03:28:50;27.43;;;18.80;;
20140;SDS011;10231;47.702;9.826;2024-01-11T03:31:15;31.43;;;19.03;;
20140;SDS011;10231;47.702;9.826;2024-01-11T03:33:41;28.87;;;19.47;;
20140;SDS011;10231;47.702;9.826;2024-01-11T03:36:10;30.03;;;18.57;;
20140;SDS011;10231;47.702;9.826;2024-01-11T03:38:36;28.17;;;18.63;;
20140;SDS011;10231;47.702;9.826;2024-01-11T03:41:02;32.20;;;19.63;;
20140;SDS011;10231;47.702;9.826;2024-01-11T03:43:33;31.53;;;19.63;;
20140;SDS011;10231;47.702;9.826;2024-01-11T03:45:58;30.03;;;18.90;;
20140;SDS011;10231;47.702;9.826;2024-01-11T03:48:24;29.37;;;19.07;;
20140;SDS011;10231;47.702;9.826;2024-01-11T03:50:49;33.17;;;20.00;;
20140;SDS011;10231;47.702;9.826;2024-01-11T03:53:15;30.57;;;18.93;;
20140;SDS011;10231;47.702;9.826;2024-01-11T03:55:40;34.73;;;20.87;;
20140;SDS011;10231;47.702;9.826;2024-01-11T03:58:06;33.83;;;21.40;;
20140;SDS011;10231;47.702;9.826;2024-01-11T04:00:31;35.50;;;21.00;;
20140;SDS011;10231;47.702;9.826;2024-01-11T04:02:58;34.03;;;21.00;;
20140;SDS011;10231;47.702;9.826;2024-01-11T04:05:24;33.10;;;19.70;;
20140;SDS011;10231;47.702;9.826;2024-01-11T04:07:49;30.73;;;19.83;;
20140;SDS011;10231;47.702;9.826;2024-01-11T04:10:15;32.83;;;19.57;;
20140;SDS011;10231;47.702;9.826;2024-01-11T04:12:42;30.83;;;19.73;;
20140;SDS011;10231;47.702;9.826;2024-01-11T04:15:08;32.33;;;20.33;;
20140;SDS011;10231;47.702;9.826;2024-01-11T04:17:36;34.93;;;20.80;;
20140;SDS011;10231;47.702;9.826;2024-01-11T04:20:03;27.97;;;17.97;;
20140;SDS011;10231;47.702;9.826;2024-01-11T04:22:29;32.10;;;20.80;;
20140;SDS011;10231;47.702;9.826;2024-01-11T04:24:55;30.47;;;19.67;;
20140;SDS011;10231;47.702;9.826;2024-01-11T04:27:20;31.60;;;18.90;;
20140;SDS011;10231;47.702;9.826;2024-01-11T04:29:46;29.40;;;18.93;;
20140;SDS011;10231;47.702;9.826;2024-01-11T04:32:11;28.33;;;18.23;;
20140;SDS011;10231;47.702;9.826;2024-01-11T04:34:37;30.53;;;19.50;;
20140;SDS011;10231;47.702;9.826;2024-01-11T04:37:02;31.33;;;19.27;;
20140;SDS011;10231;47.702;9.826;2024-01-11T04:39:28;28.77;;;19.17;;
20140;SDS011;10231;47.702;9.826;2024-01-11T04:41:53;33.43;;;20.43;;
20140;SDS011;10231;47.702;9.826;2024-01-11T04:44:19;31.37;;;18.53;;
20140;SDS011;10231;47.702;9.826;2024-01-11T04:46:44;30.43;;;19.90;;
20140;SDS011;10231;47.702;9.826;2024-01-11T04:49:10;30.87;;;17.87;;
20140;SDS011;10231;47.702;9.826;2024-01-11T04:51:35;30.27;;;18.57;;
20140;SDS011;10231;47.702;9.826;2024-01-11T04:54:01;32.97;;;20.40;;
20140;SDS011;10231;47.702;9.826;2024-01-11T04:56:26;28.37;;;19.13;;
20140;SDS011;10231;47.702;9.826;2024-01-11T04:58:54;30.40;;;19.10;;
20140;SDS011;10231;47.702;9.826;2024-01-11T05:01:20;34.83;;;19.87;;
20140;SDS011;10231;47.702;9.826;2024-01-11T05:03:46;31.20;;;19.23;;
20140;SDS011;10231;47.702;9.826;2024-01-11T05:06:15;31.77;;;18.90;;
20140;SDS011;10231;47.702;9.826;2024-01-11T05:08:45;29.10;;;17.97;;
20140;SDS011;10231;47.702;9.826;2024-01-11T05:11:15;33.57;;;19.20;;
20140;SDS011;10231;47.702;9.826;2024-01-11T05:13:44;29.40;;;18.07;;
20140;SDS011;10231;47.702;9.826;2024-01-11T05:16:28;32.73;;;19.10;;
20140;SDS011;10231;47.702;9.826;2024-01-11T05:18:54;33.80;;;19.63;;
20140;SDS011;10231;47.702;9.826;2024-01-11T05:21:21;29.53;;;17.80;;
20140;SDS011;10231;47.702;9.826;2024-01-11T05:23:47;31.23;;;18.30;;
20140;SDS011;10231;47.702;9.826;2024-01-11T05:26:14;29.47;;;17.97;;
20140;SDS011;10231;47.702;9.826;2024-01-11T05:28:40;27.47;;;17.90;;
20140;SDS011;10231;47.702;9.826;2024-01-11T05:31:10;30.53;;;18.53;;
20140;SDS011;10231;47.702;9.826;2024-01-11T05:33:37;27.47;;;17.23;;
20140;SDS011;10231;47.702;9.826;2024-01-11T05:36:05;27.77;;;16.90;;
20140;SDS011;10231;47.702;9.826;2024-01-11T05:38:31;31.13;;;17.73;;
20140;SDS011;10231;47.702;9.826;2024-01-11T05:40:57;28.27;;;17.73;;
20140;SDS011;10231;47.702;9.826;2024-01-11T05:43:23;27.87;;;17.03;;
20140;SDS011;10231;47.702;9.826;2024-01-11T05:45:49;30.17;;;17.27;;
20140;SDS011;10231;47.702;9.826;2024-01-11T05:48:15;29.10;;;16.80;;
20140;SDS011;10231;47.702;9.826;2024-01-11T05:50:41;26.47;;;15.90;;
20140;SDS011;10231;47.702;9.826;2024-01-11T05:53:07;27.93;;;16.53;;
20140;SDS011;10231;47.702;9.826;2024-01-11T05:55:33;26.00;;;17.53;;
20140;SDS011;10231;47.702;9.826;2024-01-11T05:57:59;27.20;;;17.07;;
20140;SDS011;10231;47.702;9.826;2024-01-11T06:00:25;27.27;;;16.10;;
20140;SDS011;10231;47.702;9.826;2024-01-11T06:02:50;29.37;;;17.43;;
20140;SDS011;10231;47.702;9.826;2024-01-11T06:05:16;27.37;;;15.87;;
20140;SDS011;10231;47.702;9.826;2024-01-11T06:07:41;25.83;;;16.17;;
20140;SDS011;10231;47.702;9.826;2024-01-11T06:10:07;27.63;;;16.83;;
20140;SDS011;10231;47.702;9.826;2024-01-11T06:12:34;24.47;;;16.17;;
20140;SDS011;10231;47.702;9.826;2024-01-11T06:15:00;25.50;;;15.73;;
20140;SDS011;10231;47.702;9.826;2024-01-11T06:17:26;25.27;;;15.03;;
20140;SDS011;10231;47.702;9.826;2024-01-11T06:19:52;24.23;;;14.87;;
20140;SDS011;10231;47.702;9.826;2024-01-11T06:22:17;23.67;;;15.23;;
20140;SDS011;10231;47.702;9.826;2024-01-11T06:24:43;28.33;;;16.80;;
20140;SDS011;10231;47.702;9.826;2024-01-11T06:27:09;26.80;;;16.83;;
20140;SDS011;10231;47.702;9.826;2024-01-11T06:29:34;26.30;;;15.90;;
20140;SDS011;10231;47.702;9.826;2024-01-11T06:32:00;24.90;;;16.10;;
20140;SDS011;10231;47.702;9.826;2024-01-11T06:34:27;30.30;;;17.00;;
20140;SDS011;10231;47.702;9.826;2024-01-11T06:36:53;28.90;;;17.37;;
20140;SDS011;10231;47.702;9.826;2024-01-11T06:39:19;28.90;;;17.07;;
20140;SDS011;10231;47.702;9.826;2024-01-11T06:41:45;29.07;;;17.97;;
20140;SDS011;10231;47.702;9.826;2024-01-11T06:44:10;26.67;;;17.43;;
20140;SDS011;10231;47.702;9.826;2024-01-11T06:46:36;28.77;;;17.80;;
20140;SDS011;10231;47.702;9.826;2024-01-11T06:49:04;29.20;;;16.67;;
20140;SDS011;10231;47.702;9.826;2024-01-11T06:51:30;27.60;;;16.60;;
20140;SDS011;10231;47.702;9.826;2024-01-11T06:53:55;28.63;;;16.80;;
20140;SDS011;10231;47.702;9.826;2024-01-11T06:56:21;28.53;;;18.00;;
20140;SDS011;10231;47.702;9.826;2024-01-11T06:58:46;27.60;;;17.33;;
20140;SDS011;10231;47.702;9.826;2024-01-11T07:01:13;26.70;;;16.97;;
20140;SDS011;10231;47.702;9.826;2024-01-11T07:03:39;26.87;;;16.77;;
20140;SDS011;10231;47.702;9.826;2024-01-11T07:06:05;31.27;;;18.43;;
20140;SDS011;10231;47.702;9.826;2024-01-11T07:08:31;29.03;;;18.93;;
20140;SDS011;10231;47.702;9.826;2024-01-11T07:11:00;28.97;;;18.77;;
20140;SDS011;10231;47.702;9.826;2024-01-11T07:13:29;29.17;;;16.97;;
20140;SDS011;10231;47.702;9.826;2024-01-11T07:15:56;32.20;;;17.90;;
20140;SDS011;10231;47.702;9.826;2024-01-11T07:18:22;29.77;;;18.43;;
20140;SDS011;10231;47.702;9.826;2024-01-11T07:20:48;29.87;;;19.23;;
20140;SDS011;10231;47.702;9.826;2024-01-11T07:23:15;32.80;;;19.80;;
20140;SDS011;10231;47.702;9.826;2024-01-11T07:25:40;30.73;;;17.93;;
20140;SDS011;10231;47.702;9.826;2024-01-11T07:28:06;28.00;;;17.13;;
20140;SDS011;10231;47.702;9.826;2024-01-11T07:30:32;32.13;;;19.87;;
20140;SDS011;10231;47.702;9.826;2024-01-11T07:32:58;28.83;;;18.13;;
20140;SDS011;10231;47.702;9.826;2024-01-11T07:35:23;28.93;;;16.90;;
20140;SDS011;10231;47.702;9.826;2024-01-11T07:37:49;30.87;;;17.90;;
20140;SDS011;10231;47.702;9.826;2024-01-11T07:40:15;32.67;;;19.37;;
20140;SDS011;10231;47.702;9.826;2024-01-11T07:42:41;33.03;;;17.67;;
20140;SDS011;10231;47.702;9.826;2024-01-11T07:45:08;27.40;;;16.33;;
20140;SDS011;10231;47.702;9.826;2024-01-11T07:47:37;28.40;;;17.37;;
20140;SDS011;10231;47.702;9.826;2024-01-11T07:50:04;28.00;;;16.90;;
20140;SDS011;10231;47.702;9.826;2024-01-11T07:52:31;33.77;;;19.70;;
20140;SDS011;10231;47.702;9.826;2024-01-11T07:55:00;30.57;;;20.03;;
20140;SDS011;10231;47.702;9.826;2024-01-11T07:57:31;30.33;;;17.60;;
20140;SDS011;10231;47.702;9.826;2024-01-11T07:59:58;26.07;;;15.93;;
20140;SDS011;10231;47.702;9.826;2024-01-11T08:02:24;28.10;;;16.47;;
20140;SDS011;10231;47.702;9.826;2024-01-11T08:04:50;25.83;;;16.17;;
20140;SDS011;10231;47.702;9.826;2024-01-11T08:07:15;28.50;;;16.67;;
20140;SDS011;10231;47.702;9.826;2024-01-11T08:09:41;27.73;;;16.73;;
20140;SDS011;10231;47.702;9.826;2024-01-11T08:12:13;27.87;;;17.43;;
20140;SDS011;10231;47.702;9.826;2024-01-11T08:14:39;25.50;;;16.10;;
20140;SDS011;10231;47.702;9.826;2024-01-11T08:17:07;30.23;;;17.40;;
20140;SDS011;10231;47.702;9.826;2024-01-11T08:19:33;27.37;;;17.33;;
20140;SDS011;10231;47.702;9.826;2024-01-11T08:21:59;26.73;;;16.90;;
20140;SDS011;10231;47.702;9.826;2024-01-11T08:24:25;26.63;;;16.77;;
20140;SDS011;10231;47.702;9.826;2024-01-11T08:26:50;25.33;;;16.07;;
20140;SDS011;10231;47.702;9.826;2024-01-11T08:29:16;26.50;;;16.37;;
20140;SDS011;10231;47.702;9.826;2024-01-11T08:31:45;24.03;;;15.57;;
20140;SDS011;10231;47.702;9.826;2024-01-11T08:34:11;24.93;;;15.67;;
20140;SDS011;10231;47.702;9.826;2024-01-11T08:36:36;25.40;;;15.30;;
20140;SDS011;10231;47.702;9.826;2024-01-11T08:39:03;23.00;;;15.30;;
20140;SDS011;10231;47.702;9.826;2024-01-11T08:41:31;21.40;;;15.10;;
20140;SDS011;10231;47.702;9.826;2024-01-11T08:43:56;21.30;;;13.50;;
20140;SDS011;10231;47.702;9.826;2024-01-11T08:46:25;23.63;;;14.83;;
20140;SDS011;10231;47.702;9.826;2024-01-11T08:48:54;21.27;;;13.27;;
20140;SDS011;10231;47.702;9.826;2024-01-11T08:51:21;18.13;;;11.47;;
20140;SDS011;10231;47.702;9.826;2024-01-11T08:53:47;18.70;;;11.53;;
20140;SDS011;10231;47.702;9.826;2024-01-11T08:56:13;22.47;;;12.27;;
20140;SDS011;10231;47.702;9.826;2024-01-11T08:58:41;18.50;;;12.27;;
20140;SDS011;10231;47.702;9.826;2024-01-11T09:01:06;17.50;;;11.37;;
20140;SDS011;10231;47.702;9.826;2024-01-11T09:03:33;19.13;;;11.50;;
20140;SDS011;10231;47.702;9.826;2024-01-11T09:05:59;24.77;;;14.70;;
20140;SDS011;10231;47.702;9.826;2024-01-11T09:08:25;21.30;;;13.80;;
20140;SDS011;10231;47.702;9.826;2024-01-11T09:10:51;15.37;;;11.20;;
20140;SDS011;10231;47.702;9.826;2024-01-11T09:13:18;15.80;;;10.83;;
20140;SDS011;10231;47.702;9.826;2024-01-11T09:15:44;15.50;;;11.23;;
20140;SDS011;10231;47.702;9.826;2024-01-11T09:18:09;15.57;;;11.00;;
20140;SDS011;10231;47.702;9.826;2024-01-11T09:20:35;17.63;;;11.03;;
20140;SDS011;10231;47.702;9.826;2024-01-11T09:23:01;17.37;;;11.73;;
20140;SDS011;10231;47.702;9.826;2024-01-11T09:25:30;17.53;;;12.03;;
20140;SDS011;10231;47.702;9.826;2024-01-11T09:27:56;16.10;;;10.57;;
20140;SDS011;10231;47.702;9.826;2024-01-11T09:30:21;21.20;;;12.93;;
20140;SDS011;10231;47.702;9.826;2024-01-11T09:32:47;17.70;;;12.13;;
20140;SDS011;10231;47.702;9.826;2024-01-11T09:35:13;18.37;;;12.10;;
20140;SDS011;10231;47.702;9.826;2024-01-11T09:37:39;19.40;;;13.00;;
20140;SDS011;10231;47.702;9.826;2024-01-11T09:40:05;20.20;;;13.20;;
20140;SDS011;10231;47.702;9.826;2024-01-11T09:42:35;21.50;;;13.80;;
20140;SDS011;10231;47.702;9.826;2024-01-11T09:45:08;20.10;;;14.20;;
20140;SDS011;10231;47.702;9.826;2024-01-11T09:47:37;21.33;;;13.23;;
20140;SDS011;10231;47.702;9.826;2024-01-11T09:50:03;20.43;;;13.60;;
20140;SDS011;10231;47.702;9.826;2024-01-11T09:52:29;24.33;;;13.90;;
20140;SDS011;10231;47.702;9.826;2024-01-11T09:54:58;24.57;;;15.37;;
20140;SDS011;10231;47.702;9.826;2024-01-11T09:57:26;23.23;;;13.73;;
20140;SDS011;10231;47.702;9.826;2024-01-11T09:59:55;23.60;;;14.70;;
20140;SDS011;10231;47.702;9.826;2024-01-11T10:02:25;20.57;;;13.90;;
20140;SDS011;10231;47.702;9.826;2024-01-11T10:04:54;26.90;;;15.00;;
20140;SDS011;10231;47.702;9.826;2024-01-11T10:07:23;25.50;;;15.60;;
20140;SDS011;10231;47.702;9.826;2024-01-11T10:09:52;26.60;;;15.30;;
20140;SDS011;10231;47.702;9.826;2024-01-11T10:12:18;30.20;;;17.17;;
20140;SDS011;10231;47.702;9.826;2024-01-11T10:14:45;27.40;;;15.60;;
20140;SDS011;10231;47.702;9.826;2024-01-11T10:17:12;30.73;;;17.33;;
20140;SDS011;10231;47.702;9.826;2024-01-11T10:19:37;26.30;;;15.57;;
20140;SDS011;10231;47.702;9.826;2024-01-11T10:22:03;27.63;;;16.80;;
20140;SDS011;10231;47.702;9.826;2024-01-11T10:24:29;26.27;;;14.77;;
20140;SDS011;10231;47.702;9.826;2024-01-11T10:26:55;27.37;;;15.50;;
20140;SDS011;10231;47.702;9.826;2024-01-11T10:29:22;29.07;;;14.83;;
20140;SDS011;10231;47.702;9.826;2024-01-11T10:31:48;27.07;;;16.37;;
20140;SDS011;10231;47.702;9.826;2024-01-11T10:34:15;26.47;;;14.70;;
20140;SDS011;10231;47.702;9.826;2024-01-11T10:36:41;24.70;;;15.27;;
20140;SDS011;10231;47.702;9.826;2024-01-11T10:39:07;27.90;;;15.50;;
20140;SDS011;10231;47.702;9.826;2024-01-11T10:41:39;26.77;;;15.53;;
20140;SDS011;10231;47.702;9.826;2024-01-11T10:44:14;25.17;;;14.87;;
20140;SDS011;10231;47.702;9.826;2024-01-11T10:46:47;27.20;;;16.77;;
20140;SDS011;10231;47.702;9.826;2024-01-11T10:49:19;26.43;;;15.43;;
20140;SDS011;10231;47.702;9.826;2024-01-11T10:51:49;24.77;;;15.17;;
20140;SDS011;10231;47.702;9.826;2024-01-11T10:54:23;23.63;;;14.80;;
20140;SDS011;10231;47.702;9.826;2024-01-11T10:56:49;25.60;;;15.93;;
20140;SDS011;10231;47.702;9.826;2024-01-11T10:59:16;23.70;;;14.53;;
20140;SDS011;10231;47.702;9.826;2024-01-11T11:01:43;24.10;;;13.27;;
20140;SDS011;10231;47.702;9.826;2024-01-11T11:04:10;23.00;;;13.67;;
20140;SDS011;10231;47.702;9.826;2024-01-11T11:06:36;24.60;;;15.03;;
20140;SDS011;10231;47.702;9.826;2024-01-11T11:09:03;22.83;;;13.53;;
20140;SDS011;10231;47.702;9.826;2024-01-11T11:11:30;20.57;;;12.57;;
20140;SDS011;10231;47.702;9.826;2024-01-11T11:13:59;20.10;;;12.90;;
20140;SDS011;10231;47.702;9.826;2024-01-11T11:16:26;21.50;;;13.67;;
20140;SDS011;10231;47.702;9.826;2024-01-11T11:18:53;22.47;;;13.83;;
20140;SDS011;10231;47.702;9.826;2024-01-11T11:21:20;20.70;;;13.10;;
20140;SDS011;10231;47.702;9.826;2024-01-11T11:23:46;21.90;;;13.43;;
20140;SDS011;10231;47.702;9.826;2024-01-11T11:26:15;20.50;;;13.60;;
20140;SDS011;10231;47.702;9.826;2024-01-11T11:28:41;20.50;;;12.50;;
20140;SDS011;10231;47.702;9.826;2024-01-11T11:31:07;22.60;;;12.13;;
20140;SDS011;10231;47.702;9.826;2024-01-11T11:33:32;18.53;;;12.17;;
20140;SDS011;10231;47.702;9.826;2024-01-11T11:35:59;22.00;;;12.97;;
20140;SDS011;10231;47.702;9.826;2024-01-11T11:38:28;21.80;;;13.00;;
20140;SDS011;10231;47.702;9.826;2024-01-11T11:40:56;19.87;;;12.53;;
20140;SDS011;10231;47.702;9.826;2024-01-11T11:43:23;18.87;;;12.23;;
20140;SDS011;10231;47.702;9.826;2024-01-11T11:45:51;16.57;;;10.83;;
20140;SDS011;10231;47.702;9.826;2024-01-11T11:51:06;15.30;;;10.00;;
20140;SDS011;10231;47.702;9.826;2024-01-11T11:53:40;20.23;;;12.50;;
20140;SDS011;10231;47.702;9.826;2024-01-11T11:56:06;16.53;;;10.50;;
20140;SDS011;10231;47.702;9.826;2024-01-11T11:58:37;20.83;;;11.80;;
20140;SDS011;10231;47.702;9.826;2024-01-11T12:01:04;17.70;;;11.13;;
20140;SDS011;10231;47.702;9.826;2024-01-11T12:03:30;17.63;;;11.03;;
20140;SDS011;10231;47.702;9.826;2024-01-11T12:05:58;22.67;;;13.37;;
20140;SDS011;10231;47.702;9.826;2024-01-11T12:08:24;24.23;;;14.27;;
20140;SDS011;10231;47.702;9.826;2024-01-11T12:10:50;21.57;;;14.03;;
20140;SDS011;10231;47.702;9.826;2024-01-11T12:13:17;22.03;;;14.07;;
20140;SDS011;10231;47.702;9.826;2024-01-11T12:15:43;22.93;;;14.73;;
20140;SDS011;10231;47.702;9.826;2024-01-11T12:18:08;21.90;;;13.60;;
20140;SDS011;10231;47.702;9.826;2024-01-11T12:20:34;27.20;;;15.43;;
20140;SDS011;10231;47.702;9.826;2024-01-11T12:23:00;22.33;;;13.37;;
20140;SDS011;10231;47.702;9.826;2024-01-11T12:25:27;27.33;;;15.80;;
20140;SDS011;10231;47.702;9.826;2024-01-11T12:27:53;27.20;;;15.97;;
20140;SDS011;10231;47.702;9.826;2024-01-11T12:30:21;25.90;;;15.10;;
20140;SDS011;10231;47.702;9.826;2024-01-11T12:32:47;26.33;;;15.00;;
20140;SDS011;10231;47.702;9.826;2024-01-11T12:35:13;25.47;;;15.43;;
20140;SDS011;10231;47.702;9.826;2024-01-11T12:37:38;24.03;;;15.20;;
20140;SDS011;10231;47.702;9.826;2024-01-11T12:40:04;28.27;;;15.17;;
20140;SDS011;10231;47.702;9.826;2024-01-11T12:42:33;27.50;;;15.03;;
20140;SDS011;10231;47.702;9.826;2024-01-11T12:45:00;24.93;;;14.17;;
20140;SDS011;10231;47.702;9.826;2024-01-11T12:47:25;22.43;;;14.33;;
20140;SDS011;10231;47.702;9.826;2024-01-11T12:49:51;28.20;;;15.37;;
20140;SDS011;10231;47.702;9.826;2024-01-11T12:52:17;28.00;;;15.23;;
20140;SDS011;10231;47.702;9.826;2024-01-11T12:54:44;25.10;;;14.63;;
20140;SDS011;10231;47.702;9.826;2024-01-11T12:57:19;24.40;;;15.97;;
20140;SDS011;10231;47.702;9.826;2024-01-11T12:59:45;30.07;;;16.33;;
20140;SDS011;10231;47.702;9.826;2024-01-11T13:02:11;26.13;;;15.93;;
20140;SDS011;10231;47.702;9.826;2024-01-11T13:04:40;27.47;;;16.67;;
20140;SDS011;10231;47.702;9.826;2024-01-11T13:07:07;29.27;;;16.73;;
20140;SDS011;10231;47.702;9.826;2024-01-11T13:09:34;30.20;;;17.40;;
20140;SDS011;10231;47.702;9.826;2024-01-11T13:12:00;27.57;;;16.63;;
20140;SDS011;10231;47.702;9.826;2024-01-11T13:14:25;29.40;;;17.47;;
20140;SDS011;10231;47.702;9.826;2024-01-11T13:16:51;26.97;;;16.37;;
20140;SDS011;10231;47.702;9.826;2024-01-11T13:19:17;27.50;;;16.30;;
20140;SDS011;10231;47.702;9.826;2024-01-11T13:21:42;29.90;;;16.70;;
20140;SDS011;10231;47.702;9.826;2024-01-11T13:24:08;30.13;;;18.40;;
20140;SDS011;10231;47.702;9.826;2024-01-11T13:26:35;29.87;;;17.50;;
20140;SDS011;10231;47.702;9.826;2024-01-11T13:29:04;29.07;;;16.20;;
20140;SDS011;10231;47.702;9.826;2024-01-11T13:31:33;30.00;;;17.27;;
20140;SDS011;10231;47.702;9.826;2024-01-11T13:33:58;32.40;;;18.83;;
20140;SDS011;10231;47.702;9.826;2024-01-11T13:36:24;28.67;;;17.87;;
20140;SDS011;10231;47.702;9.826;2024-01-11T13:38:50;29.23;;;16.90;;
20140;SDS011;10231;47.702;9.826;2024-01-11T13:41:16;30.03;;;16.73;;
20140;SDS011;10231;47.702;9.826;2024-01-11T13:43:42;27.60;;;17.17;;
20140;SDS011;10231;47.702;9.826;2024-01-11T13:46:08;25.70;;;14.90;;
20140;SDS011;10231;47.702;9.826;2024-01-11T13:48:34;25.43;;;15.70;;
20140;SDS011;10231;47.702;9.826;2024-01-11T13:51:00;25.73;;;14.47;;
20140;SDS011;10231;47.702;9.826;2024-01-11T13:53:28;24.03;;;15.93;;
20140;SDS011;10231;47.702;9.826;2024-01-11T13:55:53;22.20;;;13.43;;
20140;SDS011;10231;47.702;9.826;2024-01-11T13:58:20;22.27;;;13.40;;
20140;SDS011;10231;47.702;9.826;2024-01-11T14:00:46;25.80;;;14.33;;
20140;SDS011;10231;47.702;9.826;2024-01-11T14:03:12;23.20;;;13.73;;
20140;SDS011;10231;47.702;9.826;2024-01-11T14:05:37;20.17;;;13.30;;
20140;SDS011;10231;47.702;9.826;2024-01-11T14:08:03;20.87;;;13.30;;
20140;SDS011;10231;47.702;9.826;2024-01-11T14:10:30;22.17;;;13.67;;
20140;SDS011;10231;47.702;9.826;2024-01-11T14:12:57;20.70;;;13.17;;
20140;SDS011;10231;47.702;9.826;2024-01-11T14:15:24;25.37;;;14.20;;
20140;SDS011;10231;47.702;9.826;2024-01-11T14:17:50;24.67;;;14.00;;
20140;SDS011;10231;47.702;9.826;2024-01-11T14:20:16;20.37;;;13.67;;
20140;SDS011;10231;47.702;9.826;2024-01-11T14:22:42;21.90;;;13.13;;